Nearby METAR Reports

 

KRDU - Raleigh-Durham, NC, USA
Distance from station: NE 9mi, 14km
Updated: Tue, 23-Jul-2024 11:51pm EDT
Heavy thunderstorm, Rain, Mist, Overcast
Heavy thunderstorm, Rain, Mist, Overcast
 Wind from S
Wind: S 6 mph, 9 km/h
Temperature: 77°F, 25°C
Dew Point: 73°F, 23°C
Humidity: 89%
Barometer: 1021 hPa
Summary: Heavy thunderstorm, Rain, Mist
Clouds: Overcast
Visibility: 3 miles, 5 km
Cloud details: Mostly cloudy 3200 ft
Mostly cloudy 6000 ft
Overcast 11000 ft
2024/07/24 03:51 KRDU 240351Z 19005KT 3SM +TSRA BR BKN032CB BKN060 OVC110 25/23 A3015 RMK RAB42 TSB30 CONS LTGICCG OHD AND N AND S TS OHD AND N AND S MOV E P0000 T02500233
KLHZ - Louisburg, NC, USA
Distance from station: N 9mi, 14km
Updated: Tue, 23-Jul-2024 11:45pm EDT
Clear
Clear
 Wind from SSE
Wind: SSE 6 mph, 9 km/h
Temperature: 73°F, 23°C
Dew Point: 72°F, 22°C
Humidity: 94%
Barometer: 1021 hPa
Clouds: Clear
Visibility: 10 miles, 16 km
2024/07/24 03:45 KLHZ 240345Z AUTO 15005KT 10SM CLR 23/22 A3015 RMK AO2
 
KJNX - Smithfield, NC, USA
Distance from station: NNW 14mi, 23km
Updated: Tue, 23-Jul-2024 11:45pm EDT
Nearby thunderstorm, Partly cloudy
Nearby thunderstorm, Partly cloudy
 Wind from S
Wind: S 3 mph, 6 km/h
Temperature: 73°F, 23°C
Dew Point: 73°F, 23°C
Humidity: 100%
Barometer: 1020.3 hPa
Summary: Nearby Thunderstorm
Clouds: Partly cloudy
Visibility: 10 miles, 16 km
Cloud details: Partly cloudy 3900 ft
Partly cloudy 5000 ft
Partly cloudy 6500 ft
2024/07/24 03:45 KJNX 240345Z AUTO 17003KT 10SM VCTS SCT039 SCT050 SCT065 23/23 A3013 RMK AO2 LTG DSNT ALQS P0003
KHRJ - Erwin, NC, USA
Distance from station: ENE 12mi, 19km
Updated: Tue, 23-Jul-2024 11:50pm EDT
Mostly cloudy
Mostly cloudy
 Wind from S
Wind: S 5 mph, 7 km/h
Temperature: 77°F, 25°C
Dew Point: 75°F, 24°C
Humidity: 94%
Barometer: 1021 hPa
Clouds: Mostly cloudy
Visibility: 10 miles, 16 km
Cloud details: Mostly cloudy 6000 ft
2024/07/24 03:50 KHRJ 240350Z AUTO 17004KT 10SM BKN060 25/24 A3015 RMK AO2 T02490244
 
KTTA - Sanford, NC, USA
Distance from station: NNW 31mi, 50km
Updated: Tue, 23-Jul-2024 11:45pm EDT
Light rain, Overcast
Light rain, Overcast
 Wind from calm
Wind: Calm
Temperature: 73°F, 23°C
Dew Point: 73°F, 23°C
Humidity: 100%
Barometer: 1020.7 hPa
Summary: Light rain
Clouds: Overcast
Visibility: 5 miles, 8 km
Cloud details: Partly cloudy 1400 ft
Mostly cloudy 4200 ft
Overcast 6000 ft
2024/07/24 03:45 KTTA 240345Z AUTO 00000KT 5SM -RA SCT014 BKN042 OVC060 23/23 A3014 RMK AO2 P0028 T02280228
KSCR - Siler City, NC, USA
Distance from station: NW 21mi, 34km
Updated: Tue, 23-Jul-2024 11:45pm EDT
Light rain, Mostly cloudy
Light rain, Mostly cloudy
 Wind from calm
Wind: Calm
Temperature: 73°F, 23°C
Dew Point: 73°F, 23°C
Humidity: 100%
Barometer: 1020.7 hPa
Summary: Light rain
Clouds: Mostly cloudy
Visibility: 10 miles, 16 km
Cloud details: Mostly cloudy 12000 ft
2024/07/24 03:45 KSCR 240345Z AUTO 00000KT 10SM -RA BKN120 23/23 A3014 RMK AO2 P0004 T02250225